Time;durP1;ratioP1;P1;durP2;ratioP2;P2;SDS_P1;SDS_P2;PMS_P1;PMS_P2;Temp;Humidity;BMP_temperature;BMP_pressure;BME280_temperature;BME280_humidity;BME280_pressure;Samples;Min_cycle;Max_cycle;Signal;HPM_P1;HPM_P2
2023/03/27 00:00:21;;;;;;;6.45;2.58;;;5.70;99.90;;;;;;7410254;19;20312;-84
2023/03/27 00:02:50;;;;;;;4.15;2.15;;;5.70;99.90;;;;;;7403310;19;20920;-87
2023/03/27 00:05:19;;;;;;;5.35;2.22;;;5.70;99.90;;;;;;7403302;19;20337;-80
2023/03/27 00:07:47;;;;;;;6.43;2.17;;;5.60;99.90;;;;;;7397396;19;20318;-81
2023/03/27 00:10:13;;;;;;;5.38;2.08;;;5.60;99.90;;;;;;7406342;19;20305;-87
2023/03/27 00:12:40;;;;;;;5.10;2.15;;;5.50;99.90;;;;;;7393281;19;20312;-86
2023/03/27 00:15:06;;;;;;;2.92;2.00;;;5.50;99.90;;;;;;7410070;19;20315;-86
2023/03/27 00:17:32;;;;;;;4.03;2.03;;;5.40;99.90;;;;;;7408438;19;20303;-80
2023/03/27 00:19:58;;;;;;;2.37;1.83;;;5.40;99.90;;;;;;7406880;19;20313;-84
2023/03/27 00:22:23;;;;;;;3.00;1.90;;;5.40;99.90;;;;;;7399488;19;20329;-87
2023/03/27 00:24:49;;;;;;;5.53;1.93;;;5.30;99.90;;;;;;7400299;19;21000;-79
2023/03/27 00:27:15;;;;;;;4.60;2.03;;;5.30;99.90;;;;;;7398703;19;20337;-87
2023/03/27 00:29:40;;;;;;;4.20;1.80;;;5.30;99.90;;;;;;7392727;19;20353;-80
2023/03/27 00:32:06;;;;;;;2.80;1.70;;;5.20;99.90;;;;;;7392682;19;20312;-84
2023/03/27 00:34:32;;;;;;;3.53;2.05;;;5.30;99.90;;;;;;7396265;19;20305;-81
2023/03/27 00:36:57;;;;;;;5.13;2.00;;;5.20;99.90;;;;;;7397164;19;20363;-85
2023/03/27 00:39:23;;;;;;;6.20;1.95;;;5.20;99.90;;;;;;7405211;19;20325;-88
2023/03/27 00:41:49;;;;;;;5.40;1.80;;;5.20;99.90;;;;;;7397014;19;20304;-82
2023/03/27 00:44:33;;;;;;;6.60;1.85;;;5.10;99.90;;;;;;7401860;19;20324;-85
2023/03/27 00:47:01;;;;;;;2.70;1.73;;;5.00;99.90;;;;;;7400044;19;20647;-80
2023/03/27 00:49:32;;;;;;;3.85;2.00;;;5.10;99.90;;;;;;7391236;19;22345;-83
2023/03/27 00:51:58;;;;;;;3.95;1.88;;;5.10;99.90;;;;;;7395292;19;20447;-83
2023/03/27 00:54:28;;;;;;;2.70;1.67;;;5.10;99.90;;;;;;7406349;19;20361;-85
2023/03/27 00:56:58;;;;;;;4.65;1.90;;;5.10;99.90;;;;;;7401912;19;20320;-80
2023/03/27 00:59:30;;;;;;;3.33;2.00;;;5.00;99.90;;;;;;7403689;19;20332;-80
2023/03/27 01:01:57;;;;;;;3.90;1.95;;;5.00;99.90;;;;;;7401038;19;20346;-81
2023/03/27 01:04:23;;;;;;;6.53;1.80;;;4.90;99.90;;;;;;7400372;19;20316;-85
2023/03/27 01:06:50;;;;;;;2.33;1.67;;;5.00;99.90;;;;;;7402711;19;20337;-87
2023/03/27 01:09:17;;;;;;;5.53;2.20;;;5.00;99.90;;;;;;7397112;19;20413;-81
2023/03/27 01:11:47;;;;;;;3.15;1.73;;;5.00;99.90;;;;;;7392818;19;20316;-80
2023/03/27 01:14:29;;;;;;;2.40;1.55;;;5.00;99.90;;;;;;7395938;19;20833;-81
2023/03/27 01:17:22;;;;;;;3.45;2.00;;;5.00;99.90;;;;;;7402208;19;20316;-79
2023/03/27 01:20:06;;;;;;;2.50;1.50;;;5.10;99.90;;;;;;7301080;19;2004193;-81
2023/03/27 01:22:57;;;;;;;5.95;2.00;;;5.10;99.90;;;;;;7393860;19;21208;-80
2023/03/27 01:25:50;;;;;;;3.60;1.80;;;4.90;99.90;;;;;;7294818;19;2004388;-82
2023/03/27 01:28:37;;;;;;;3.05;1.83;;;4.90;99.90;;;;;;7294765;19;2004168;-79
2023/03/27 01:31:25;;;;;;;2.28;1.85;;;4.80;99.90;;;;;;7396476;19;20343;-83
2023/03/27 01:34:08;;;;;;;3.42;2.00;;;4.80;99.90;;;;;;7294092;19;2004404;-81
2023/03/27 01:37:09;;;;;;;2.63;1.80;;;4.80;99.90;;;;;;7394997;19;20308;-83
2023/03/27 01:40:17;;;;;;;2.92;1.90;;;4.70;99.90;;;;;;7292815;19;2004371;-81
2023/03/27 01:42:47;;;;;;;4.07;1.83;;;4.80;99.90;;;;;;7183480;19;2004438;-83
2023/03/27 01:45:41;;;;;;;2.70;1.63;;;4.70;99.90;;;;;;7391082;19;20331;-83
2023/03/27 01:48:22;;;;;;;4.38;1.88;;;4.70;99.90;;;;;;7392213;19;20316;-84
2023/03/27 01:50:53;;;;;;;4.90;2.15;;;4.70;99.90;;;;;;7292271;19;2004420;-79
2023/03/27 01:53:23;;;;;;;2.03;1.45;;;4.70;99.90;;;;;;7397868;19;20376;-82
2023/03/27 01:55:57;;;;;;;1.65;1.40;;;4.60;99.90;;;;;;7392022;19;20834;-78
2023/03/27 01:58:28;;;;;;;2.75;1.40;;;4.70;99.90;;;;;;7395735;19;20312;-78
2023/03/27 02:00:56;;;;;;;2.30;1.47;;;4.50;99.90;;;;;;7392058;19;20313;-79
2023/03/27 02:03:26;;;;;;;1.63;1.52;;;4.40;99.90;;;;;;7390131;19;20305;-81
2023/03/27 02:05:57;;;;;;;2.10;1.43;;;4.30;99.90;;;;;;7395153;19;20344;-85
2023/03/27 02:08:43;;;;;;;2.20;1.30;;;4.30;99.90;;;;;;7393934;19;20317;-81
2023/03/27 02:11:17;;;;;;;2.03;1.23;;;4.30;99.90;;;;;;7291498;19;2004342;-81
2023/03/27 02:13:49;;;;;;;2.13;1.45;;;4.30;99.90;;;;;;7390439;19;20312;-80
2023/03/27 02:16:18;;;;;;;1.75;1.20;;;4.30;99.90;;;;;;7394559;19;20317;-82
2023/03/27 02:18:48;;;;;;;1.90;1.40;;;4.20;99.90;;;;;;7389094;19;20344;-80
2023/03/27 02:21:15;;;;;;;1.50;1.40;;;4.20;99.90;;;;;;7390529;19;20675;-78
2023/03/27 02:23:43;;;;;;;2.00;1.30;;;4.20;99.90;;;;;;7389657;19;20684;-80
2023/03/27 02:26:11;;;;;;;2.22;1.45;;;4.20;99.90;;;;;;7390591;19;21178;-85
2023/03/27 02:28:58;;;;;;;1.40;1.30;;;4.10;99.90;;;;;;7391130;19;20312;-79
2023/03/27 02:31:49;;;;;;;1.53;1.30;;;4.10;99.90;;;;;;7286786;19;2004680;-84
2023/03/27 02:34:27;;;;;;;2.30;1.42;;;4.00;99.90;;;;;;7288981;19;2004425;-81
2023/03/27 02:37:20;;;;;;;2.33;1.23;;;4.10;99.90;;;;;;7389284;19;20358;-79
2023/03/27 02:40:17;;;;;;;1.77;1.45;;;4.10;99.90;;;;;;7290614;19;2004206;-78
2023/03/27 02:42:58;;;;;;;1.77;1.30;;;4.00;99.90;;;;;;7286753;19;2004195;-82
2023/03/27 02:45:25;;;;;;;1.58;1.33;;;4.00;99.90;;;;;;7387227;19;20312;-82
2023/03/27 02:47:53;;;;;;;1.50;1.40;;;4.10;99.90;;;;;;7389918;19;20409;-80
2023/03/27 02:50:22;;;;;;;2.30;1.38;;;4.00;99.90;;;;;;7387238;19;20316;-80
2023/03/27 02:52:51;;;;;;;2.80;1.50;;;4.00;99.90;;;;;;7387273;19;20397;-79
2023/03/27 02:55:25;;;;;;;1.50;1.40;;;4.00;99.90;;;;;;7381336;19;20316;-82
2023/03/27 02:57:55;;;;;;;1.67;1.30;;;4.00;99.90;;;;;;7390830;19;20313;-81
2023/03/27 03:00:59;;;;;;;2.20;1.40;;;4.10;99.90;;;;;;7284727;19;2004608;-82
2023/03/27 03:03:35;;;;;;;1.30;1.20;;;4.10;99.90;;;;;;7388755;19;20333;-80
2023/03/27 03:06:20;;;;;;;1.60;1.50;;;4.00;99.90;;;;;;7286222;19;2004577;-77
2023/03/27 03:08:47;;;;;;;1.47;1.30;;;3.90;99.90;;;;;;7388709;19;20420;-80
2023/03/27 03:11:13;;;;;;;1.45;1.35;;;3.90;99.90;;;;;;7386840;19;20341;-79
2023/03/27 03:13:42;;;;;;;1.42;1.27;;;3.80;99.90;;;;;;7386724;19;20324;-79
2023/03/27 03:16:09;;;;;;;1.30;1.20;;;3.80;99.90;;;;;;7386523;19;20305;-79
2023/03/27 03:18:35;;;;;;;1.70;1.30;;;3.80;99.90;;;;;;7387742;19;20655;-78
2023/03/27 03:21:01;;;;;;;1.33;1.23;;;3.80;99.90;;;;;;7386364;19;20332;-78
2023/03/27 03:23:27;;;;;;;1.33;1.17;;;3.70;99.90;;;;;;7387125;19;20325;-79
2023/03/27 03:25:55;;;;;;;1.40;1.30;;;3.60;99.90;;;;;;7388899;19;20348;-79
2023/03/27 03:28:25;;;;;;;1.20;1.10;;;3.50;99.90;;;;;;7387073;19;20320;-83
2023/03/27 03:30:52;;;;;;;1.30;1.20;;;3.60;99.90;;;;;;7389154;19;20361;-80
2023/03/27 03:33:18;;;;;;;1.15;1.08;;;3.50;99.90;;;;;;7385877;19;20435;-80
2023/03/27 03:35:50;;;;;;;1.30;1.20;;;3.40;99.90;;;;;;7385588;19;20396;-78
2023/03/27 03:38:34;;;;;;;1.05;1.00;;;3.40;99.90;;;;;;7385769;19;20305;-79
2023/03/27 03:41:02;;;;;;;1.10;1.00;;;3.30;99.90;;;;;;7385628;19;20412;-79
2023/03/27 03:43:30;;;;;;;1.20;1.10;;;3.30;99.90;;;;;;7384416;19;20319;-81
2023/03/27 03:45:58;;;;;;;1.17;1.00;;;3.30;99.90;;;;;;7385947;19;20365;-78
2023/03/27 03:48:24;;;;;;;1.23;1.17;;;3.30;99.90;;;;;;7385841;19;20313;-79
2023/03/27 03:50:50;;;;;;;1.30;1.13;;;3.20;99.90;;;;;;7384379;19;20348;-77
2023/03/27 03:53:17;;;;;;;1.00;1.00;;;3.30;99.90;;;;;;7383360;19;20308;-78
2023/03/27 03:55:44;;;;;;;0.90;0.90;;;3.00;99.90;;;;;;7391780;19;20394;-82
2023/03/27 03:58:10;;;;;;;1.00;1.00;;;3.00;99.90;;;;;;7386938;19;20863;-79
2023/03/27 04:00:37;;;;;;;2.00;1.23;;;3.00;99.90;;;;;;7385086;19;20316;-79
2023/03/27 04:03:06;;;;;;;1.10;1.00;;;3.00;99.90;;;;;;7384713;19;20296;-79
2023/03/27 04:05:35;;;;;;;1.05;1.05;;;3.00;99.90;;;;;;7387795;19;20317;-78
2023/03/27 04:08:02;;;;;;;1.43;1.23;;;3.00;99.90;;;;;;7387343;19;20333;-83
2023/03/27 04:10:46;;;;;;;1.55;1.20;;;2.90;99.90;;;;;;7283297;19;2004418;-79
2023/03/27 04:13:26;;;;;;;1.58;1.33;;;2.90;99.90;;;;;;7387330;19;20309;-80
2023/03/27 04:16:00;;;;;;;1.50;1.20;;;2.80;99.90;;;;;;7387812;19;20363;-86
2023/03/27 04:18:36;;;;;;;1.00;1.00;;;2.80;99.90;;;;;;7388306;19;20388;-77
2023/03/27 04:21:13;;;;;;;1.00;1.00;;;2.80;99.90;;;;;;7388896;19;20809;-88
2023/03/27 04:23:42;;;;;;;1.40;1.20;;;2.70;99.90;;;;;;7390113;19;20722;-79
2023/03/27 04:26:10;;;;;;;1.00;1.00;;;2.70;99.90;;;;;;7390006;19;20316;-88
2023/03/27 04:28:55;;;;;;;1.08;1.00;;;2.60;99.90;;;;;;7287749;19;2004454;-84
2023/03/27 04:31:45;;;;;;;1.20;1.10;;;2.60;99.90;;;;;;7283589;19;2004359;-80
2023/03/27 04:34:29;;;;;;;1.50;1.20;;;2.60;99.90;;;;;;7388139;19;20463;-78
2023/03/27 04:37:23;;;;;;;1.20;1.10;;;2.60;99.90;;;;;;7286230;19;2004279;-86
2023/03/27 04:40:00;;;;;;;0.98;0.95;;;2.50;99.90;;;;;;7389300;19;20436;-84
2023/03/27 04:42:26;;;;;;;0.90;0.90;;;2.50;99.90;;;;;;7386951;19;20327;-84
2023/03/27 04:44:52;;;;;;;1.20;1.10;;;2.50;99.90;;;;;;7389373;19;20337;-80
2023/03/27 04:47:19;;;;;;;0.95;0.90;;;2.40;99.90;;;;;;7388994;19;20324;-81
2023/03/27 04:49:49;;;;;;;1.50;1.00;;;2.40;99.90;;;;;;7388877;19;20383;-78
2023/03/27 04:52:21;;;;;;;0.90;0.90;;;2.30;99.90;;;;;;7392209;19;21153;-89
2023/03/27 04:54:57;;;;;;;0.85;0.85;;;2.30;99.90;;;;;;7389075;19;20387;-90
2023/03/27 04:57:30;;;;;;;1.10;1.00;;;2.20;99.90;;;;;;7391820;19;20349;-81
2023/03/27 04:59:59;;;;;;;1.30;1.10;;;2.20;99.90;;;;;;7389472;19;20420;-79
2023/03/27 05:02:51;;;;;;;0.90;0.90;;;2.10;99.90;;;;;;7182834;19;2004861;-87
2023/03/27 05:05:23;;;;;;;1.05;1.00;;;2.20;99.90;;;;;;7404257;19;20348;-89
2023/03/27 05:07:50;;;;;;;0.70;0.70;;;2.20;99.90;;;;;;7401499;19;20354;-87
2023/03/27 05:10:21;;;;;;;1.60;1.00;;;2.10;99.90;;;;;;7397554;19;20340;-92
2023/03/27 05:12:48;;;;;;;1.30;0.90;;;2.10;99.90;;;;;;7393495;19;20348;-84
2023/03/27 05:15:15;;;;;;;0.85;0.85;;;2.10;99.90;;;;;;7394956;19;20315;-88
2023/03/27 05:17:44;;;;;;;0.90;0.90;;;2.10;99.90;;;;;;7397859;19;20305;-90
2023/03/27 05:20:13;;;;;;;2.15;1.02;;;2.20;99.90;;;;;;7401085;19;20849;-91
2023/03/27 05:22:42;;;;;;;1.08;1.02;;;2.20;99.90;;;;;;7385838;19;20654;-80
2023/03/27 05:25:20;;;;;;;1.55;1.00;;;2.10;99.90;;;;;;7282714;19;2004271;-79
2023/03/27 05:27:46;;;;;;;1.05;0.90;;;2.20;99.90;;;;;;7358314;19;20328;-80
2023/03/27 05:30:14;;;;;;;0.85;0.85;;;2.10;99.90;;;;;;7386911;19;20303;-80
2023/03/27 05:32:44;;;;;;;0.90;0.90;;;2.10;99.90;;;;;;7388422;19;20337;-85
2023/03/27 05:35:16;;;;;;;0.93;0.90;;;2.20;99.90;;;;;;7384440;19;20324;-83
2023/03/27 05:37:46;;;;;;;1.20;1.10;;;2.10;99.90;;;;;;7385263;19;20312;-82
2023/03/27 05:40:35;;;;;;;0.90;0.90;;;2.20;99.90;;;;;;7385025;19;20860;-86
2023/03/27 05:43:01;;;;;;;1.35;1.10;;;2.20;99.90;;;;;;7381247;19;20861;-80
2023/03/27 05:45:30;;;;;;;1.00;0.82;;;2.10;99.90;;;;;;7379498;19;20786;-79
2023/03/27 05:47:56;;;;;;;1.20;1.10;;;2.00;99.90;;;;;;7383076;19;20357;-84
2023/03/27 05:50:33;;;;;;;1.13;1.02;;;2.00;99.90;;;;;;7382710;19;20504;-84
2023/03/27 05:53:08;;;;;;;1.10;1.00;;;2.00;99.90;;;;;;7381041;19;20345;-80
2023/03/27 05:55:37;;;;;;;0.98;0.98;;;1.90;99.90;;;;;;7384633;19;20321;-83
2023/03/27 05:58:04;;;;;;;1.00;1.00;;;1.90;99.90;;;;;;7387082;19;20328;-84
2023/03/27 06:00:31;;;;;;;1.13;1.00;;;2.00;99.90;;;;;;7386618;19;20345;-81
2023/03/27 06:02:58;;;;;;;1.27;1.17;;;1.90;99.90;;;;;;7385096;19;20336;-79
2023/03/27 06:05:39;;;;;;;1.00;1.00;;;1.90;99.90;;;;;;7387535;19;20304;-82
2023/03/27 06:08:11;;;;;;;1.20;1.10;;;2.00;99.90;;;;;;7387258;19;20308;-81
2023/03/27 06:10:39;;;;;;;2.20;1.10;;;2.00;99.90;;;;;;7386676;19;20308;-83
2023/03/27 06:13:17;;;;;;;2.40;1.25;;;2.00;99.90;;;;;;7284140;19;2004496;-84
2023/03/27 06:15:52;;;;;;;0.80;0.80;;;2.10;99.90;;;;;;7386221;19;20355;-83
2023/03/27 06:18:43;;;;;;;1.05;1.05;;;2.10;99.90;;;;;;7283095;19;2004437;-81
2023/03/27 06:21:11;;;;;;;1.13;1.03;;;2.00;99.90;;;;;;7384372;19;20362;-85
2023/03/27 06:23:37;;;;;;;1.42;1.10;;;2.10;99.90;;;;;;7384873;19;21103;-86
2023/03/27 06:26:09;;;;;;;1.70;1.17;;;2.20;99.90;;;;;;7388529;19;20655;-79
2023/03/27 06:28:35;;;;;;;1.45;1.10;;;2.10;99.90;;;;;;7386645;19;20476;-79
2023/03/27 06:31:01;;;;;;;1.20;1.00;;;2.20;99.90;;;;;;7384545;19;20341;-84
2023/03/27 06:33:35;;;;;;;1.17;1.00;;;2.10;99.90;;;;;;7382717;19;20351;-80
2023/03/27 06:36:04;;;;;;;1.00;1.00;;;2.20;99.90;;;;;;7392175;19;20304;-79
2023/03/27 06:38:32;;;;;;;0.90;0.90;;;2.20;99.90;;;;;;7392022;19;20328;-81
2023/03/27 06:41:03;;;;;;;0.95;0.95;;;2.40;99.90;;;;;;7390224;19;20352;-81
2023/03/27 06:44:04;;;;;;;1.33;1.02;;;2.50;99.90;;;;;;7286340;19;2004253;-79
2023/03/27 06:46:41;;;;;;;0.85;0.85;;;2.60;99.90;;;;;;7287787;19;2004199;-84
2023/03/27 06:49:13;;;;;;;1.58;1.10;;;2.50;99.90;;;;;;7389994;19;20341;-80
2023/03/27 06:51:39;;;;;;;1.30;1.20;;;2.40;99.90;;;;;;7389545;19;20316;-90
2023/03/27 06:54:05;;;;;;;0.90;0.90;;;2.50;99.90;;;;;;7392353;19;20316;-84
2023/03/27 06:56:32;;;;;;;0.90;0.90;;;2.50;99.90;;;;;;7392521;19;20330;-82
2023/03/27 06:59:21;;;;;;;0.90;0.90;;;2.50;99.90;;;;;;7293853;19;2004203;-82
2023/03/27 07:01:51;;;;;;;1.00;1.00;;;2.60;99.90;;;;;;7396615;19;20344;-93
2023/03/27 07:04:26;;;;;;;0.90;0.90;;;2.60;99.90;;;;;;7407274;19;20320;-87
2023/03/27 07:07:11;;;;;;;1.10;0.90;;;2.60;99.90;;;;;;7406519;19;20308;-89
2023/03/27 07:09:40;;;;;;;1.10;1.00;;;2.30;99.90;;;;;;7404145;19;20312;-89
2023/03/27 07:12:08;;;;;;;1.60;1.00;;;2.10;99.90;;;;;;7401622;19;20372;-89
2023/03/27 07:14:34;;;;;;;1.08;1.02;;;2.20;99.90;;;;;;7401294;19;20328;-79
2023/03/27 07:17:00;;;;;;;1.00;1.00;;;2.20;99.90;;;;;;7403428;19;20357;-88
2023/03/27 07:19:34;;;;;;;0.88;0.88;;;2.10;99.90;;;;;;7404172;19;20325;-90
2023/03/27 07:22:05;;;;;;;1.47;0.90;;;2.10;99.90;;;;;;7402629;19;20322;-90
2023/03/27 07:24:33;;;;;;;1.02;0.93;;;2.10;99.90;;;;;;7401535;19;20357;-88
2023/03/27 07:26:58;;;;;;;1.00;1.00;;;2.20;99.90;;;;;;7406066;19;20345;-92
2023/03/27 07:29:30;;;;;;;0.93;0.93;;;2.10;99.90;;;;;;7404137;19;20300;-95
2023/03/27 07:31:57;;;;;;;2.00;1.20;;;2.10;99.90;;;;;;7396949;19;20337;-91
2023/03/27 07:34:42;;;;;;;1.15;1.13;;;2.10;99.90;;;;;;7297321;19;2004507;-84
2023/03/27 07:37:36;;;;;;;0.75;0.75;;;2.20;99.90;;;;;;7400013;19;20336;-78
2023/03/27 07:40:25;;;;;;;0.80;0.80;;;2.10;99.90;;;;;;7288924;19;2004362;-77
2023/03/27 07:43:07;;;;;;;0.82;0.82;;;2.20;99.90;;;;;;7388439;19;20325;-77
2023/03/27 07:45:34;;;;;;;0.80;0.80;;;2.30;99.90;;;;;;7383774;19;20328;-82
2023/03/27 07:48:12;;;;;;;1.83;1.10;;;2.20;99.90;;;;;;7389591;19;20365;-85
2023/03/27 07:50:39;;;;;;;0.90;0.90;;;2.30;99.90;;;;;;7389802;19;20320;-79
2023/03/27 07:53:07;;;;;;;0.82;0.82;;;2.40;99.90;;;;;;7388473;19;20316;-79
2023/03/27 07:55:36;;;;;;;1.13;1.02;;;2.60;99.90;;;;;;7387536;19;20379;-82
2023/03/27 07:58:05;;;;;;;1.00;1.00;;;2.80;99.90;;;;;;7391176;19;20317;-84
2023/03/27 08:00:34;;;;;;;0.90;0.90;;;3.10;99.90;;;;;;7391097;19;20308;-81
2023/03/27 08:03:10;;;;;;;1.05;1.05;;;3.20;99.90;;;;;;7389933;19;20315;-77
2023/03/27 08:05:41;;;;;;;0.90;0.90;;;3.20;99.90;;;;;;7388334;19;20329;-79
2023/03/27 08:08:10;;;;;;;1.30;1.20;;;3.60;99.90;;;;;;7390766;19;20333;-81
2023/03/27 08:10:55;;;;;;;2.10;1.60;;;3.70;99.90;;;;;;7286497;19;2004422;-81
2023/03/27 08:13:22;;;;;;;1.58;1.48;;;3.70;99.90;;;;;;7389720;19;20877;-81
2023/03/27 08:15:48;;;;;;;1.25;1.15;;;3.70;99.90;;;;;;7388514;19;20351;-81
2023/03/27 08:18:20;;;;;;;1.07;1.00;;;3.80;99.90;;;;;;7390769;19;20316;-85
2023/03/27 08:20:47;;;;;;;1.10;1.10;;;3.60;99.90;;;;;;7390105;19;20420;-82
2023/03/27 08:23:13;;;;;;;1.60;1.20;;;3.60;99.90;;;;;;7389097;19;20932;-83
2023/03/27 08:26:17;;;;;;;1.20;1.10;;;3.60;99.90;;;;;;7283633;19;2004696;-81
2023/03/27 08:28:52;;;;;;;1.30;1.20;;;3.10;99.90;;;;;;7391024;19;20373;-77
2023/03/27 08:31:22;;;;;;;1.10;1.10;;;3.20;99.90;;;;;;7396956;19;20337;-89
2023/03/27 08:33:48;;;;;;;1.20;1.10;;;3.50;99.90;;;;;;7396039;19;20344;-79
2023/03/27 08:36:21;;;;;;;1.00;1.00;;;3.50;99.90;;;;;;7381955;19;20314;-76
2023/03/27 08:38:50;;;;;;;1.00;1.00;;;3.80;99.90;;;;;;7385648;19;20332;-77
2023/03/27 08:41:29;;;;;;;0.90;0.90;;;4.10;99.90;;;;;;7385607;19;20329;-79
2023/03/27 08:44:10;;;;;;;1.10;1.00;;;4.20;99.90;;;;;;7386613;19;20313;-83
2023/03/27 08:46:47;;;;;;;1.00;1.00;;;4.40;99.90;;;;;;7382022;19;20308;-82
2023/03/27 08:49:17;;;;;;;1.10;1.10;;;4.50;99.90;;;;;;7283212;19;2004595;-76
2023/03/27 08:52:21;;;;;;;1.00;1.00;;;4.30;99.90;;;;;;7383453;19;20329;-78
2023/03/27 08:54:59;;;;;;;1.17;1.10;;;4.20;99.90;;;;;;7280350;19;2004468;-79
2023/03/27 08:57:34;;;;;;;1.42;1.20;;;3.90;99.90;;;;;;7385154;19;20337;-78
2023/03/27 09:00:21;;;;;;;1.20;1.10;;;3.80;99.90;;;;;;7282308;19;2004523;-82
2023/03/27 09:02:55;;;;;;;1.23;1.13;;;3.80;99.90;;;;;;7385495;19;20882;-77
2023/03/27 09:05:25;;;;;;;1.55;1.30;;;4.00;99.90;;;;;;7385457;19;20754;-86
2023/03/27 09:08:04;;;;;;;1.00;1.00;;;4.30;99.90;;;;;;7383869;19;20337;-79
2023/03/27 09:10:34;;;;;;;1.08;1.08;;;4.40;99.90;;;;;;7385797;19;20518;-80
2023/03/27 09:13:25;;;;;;;1.30;1.20;;;4.50;99.90;;;;;;7385852;19;20336;-78
2023/03/27 09:15:57;;;;;;;1.00;1.00;;;4.30;99.90;;;;;;7280279;19;2004712;-78
2023/03/27 09:18:26;;;;;;;1.10;1.00;;;4.30;99.90;;;;;;7383403;19;20356;-82
2023/03/27 09:20:55;;;;;;;0.90;0.90;;;4.60;99.90;;;;;;7384896;19;20340;-78
2023/03/27 09:23:29;;;;;;;0.90;0.90;;;4.30;99.90;;;;;;7382811;19;20364;-80
2023/03/27 09:26:35;;;;;;;1.03;1.03;;;4.60;99.90;;;;;;7277899;19;2004456;-81
2023/03/27 09:29:11;;;;;;;0.90;0.90;;;4.90;99.90;;;;;;7385335;19;20309;-76
2023/03/27 09:31:45;;;;;;;1.27;1.10;;;5.10;99.90;;;;;;7387325;19;20305;-79
2023/03/27 09:34:13;;;;;;;1.10;0.90;;;5.20;99.90;;;;;;7282854;19;2004240;-79
2023/03/27 09:36:40;;;;;;;1.13;1.02;;;5.10;99.90;;;;;;7381564;19;20982;-83
2023/03/27 09:39:11;;;;;;;1.30;1.05;;;4.90;99.90;;;;;;7385359;19;20324;-78
2023/03/27 09:41:44;;;;;;;2.05;1.10;;;5.10;99.90;;;;;;7383136;19;20340;-79
2023/03/27 09:44:31;;;;;;;1.40;1.10;;;5.10;99.90;;;;;;7382484;19;21004;-81
2023/03/27 09:47:03;;;;;;;1.10;0.95;;;5.20;99.90;;;;;;7280471;19;2004372;-81
2023/03/27 09:49:29;;;;;;;1.08;1.00;;;5.40;99.90;;;;;;7381968;19;20327;-79
2023/03/27 09:51:57;;;;;;;1.20;1.07;;;5.60;99.90;;;;;;7380751;19;20329;-81
2023/03/27 09:54:51;;;;;;;1.10;1.10;;;5.50;99.90;;;;;;7276785;19;2004357;-79
2023/03/27 09:57:17;;;;;;;1.30;1.20;;;5.30;99.90;;;;;;7381799;19;21107;-78
2023/03/27 10:00:20;;;;;;;1.02;1.02;;;5.20;99.90;;;;;;7382908;19;20339;-80
2023/03/27 10:03:13;;;;;;;2.50;0.90;;;5.40;99.90;;;;;;7170320;19;2004550;-78
2023/03/27 10:05:42;;;;;;;1.25;1.08;;;5.60;99.90;;;;;;7378260;19;20312;-81
2023/03/27 10:08:23;;;;;;;1.17;1.00;;;6.00;99.90;;;;;;7380927;19;20329;-82
2023/03/27 10:11:07;;;;;;;0.90;0.90;;;6.40;99.90;;;;;;7287101;19;2004443;-77
2023/03/27 10:13:45;;;;;;;0.90;0.90;;;5.50;99.90;;;;;;7283783;19;2004357;-82
2023/03/27 10:16:16;;;;;;;0.90;0.90;;;5.70;99.90;;;;;;7387106;19;20315;-83
2023/03/27 10:18:54;;;;;;;1.10;0.90;;;5.80;99.90;;;;;;7388394;19;20338;-82
2023/03/27 10:21:34;;;;;;;0.98;0.90;;;5.70;99.90;;;;;;7388163;19;20476;-77
2023/03/27 10:24:21;;;;;;;1.00;1.00;;;5.40;99.90;;;;;;7390652;19;20360;-80
2023/03/27 10:27:09;;;;;;;1.10;1.00;;;5.30;99.90;;;;;;7286611;19;2004192;-77
2023/03/27 10:29:38;;;;;;;0.90;0.90;;;5.70;99.90;;;;;;7389488;19;20401;-79
2023/03/27 10:32:06;;;;;;;1.10;1.00;;;5.90;99.90;;;;;;7389104;19;20308;-87
2023/03/27 10:34:56;;;;;;;1.60;1.20;;;6.30;99.90;;;;;;7390665;19;20348;-77
2023/03/27 10:38:10;;;;;;;1.15;1.13;;;6.10;99.90;;;;;;7185148;19;2004500;-78
2023/03/27 10:40:36;;;;;;;0.90;0.90;;;6.30;99.90;;;;;;7391780;19;20311;-77
2023/03/27 10:43:15;;;;;;;1.20;1.10;;;6.30;99.90;;;;;;7390079;19;20409;-81
2023/03/27 10:45:49;;;;;;;1.10;1.10;;;6.30;99.90;;;;;;7285835;19;2004297;-77
2023/03/27 10:48:31;;;;;;;1.05;1.05;;;6.10;99.90;;;;;;7388989;19;21202;-79
2023/03/27 10:51:00;;;;;;;3.30;1.20;;;6.00;99.90;;;;;;7389244;19;20383;-77
2023/03/27 10:53:53;;;;;;;1.30;1.20;;;6.60;99.90;;;;;;7286162;19;2004528;-78
2023/03/27 10:56:26;;;;;;;1.60;1.00;;;6.50;99.90;;;;;;7388161;19;20438;-80
2023/03/27 10:58:58;;;;;;;1.00;1.00;;;6.50;99.90;;;;;;7389438;19;20367;-78
2023/03/27 11:01:42;;;;;;;1.10;1.10;;;6.10;99.90;;;;;;7385909;19;20348;-80
2023/03/27 11:04:24;;;;;;;1.60;1.20;;;6.10;99.90;;;;;;7389751;19;20304;-87
2023/03/27 11:06:58;;;;;;;4.38;1.40;;;6.10;99.90;;;;;;7286023;19;2004401;-79
2023/03/27 11:09:26;;;;;;;1.23;1.20;;;6.40;99.90;;;;;;7387504;19;20345;-80
2023/03/27 11:12:10;;;;;;;1.10;1.10;;;6.70;99.90;;;;;;7386357;19;20344;-78
2023/03/27 11:14:55;;;;;;;0.93;0.93;;;7.40;99.90;;;;;;7386784;19;20369;-79
2023/03/27 11:17:27;;;;;;;2.72;1.33;;;7.30;99.90;;;;;;7285559;19;2004248;-78
2023/03/27 11:20:15;;;;;;;1.13;1.02;;;7.10;99.90;;;;;;7388650;19;20308;-77
2023/03/27 11:23:03;;;;;;;1.20;1.10;;;6.70;99.90;;;;;;7287318;19;2004577;-84
2023/03/27 11:25:43;;;;;;;1.30;1.10;;;6.80;99.90;;;;;;7387885;19;20388;-79
2023/03/27 11:28:45;;;;;;;1.40;1.10;;;6.30;99.90;;;;;;7284138;19;2004712;-80
2023/03/27 11:31:23;;;;;;;1.20;1.10;;;6.20;99.90;;;;;;7283178;19;2004245;-79
2023/03/27 11:34:05;;;;;;;1.20;1.10;;;6.40;99.90;;;;;;7385413;19;20411;-80
2023/03/27 11:36:50;;;;;;;1.00;1.00;;;6.80;99.90;;;;;;7387737;19;20367;-79
2023/03/27 11:39:47;;;;;;;1.23;1.13;;;7.30;99.90;;;;;;7286780;19;2004242;-85
2023/03/27 11:42:17;;;;;;;1.20;1.10;;;7.70;99.90;;;;;;7284303;19;2004399;-83
2023/03/27 11:44:45;;;;;;;1.10;1.00;;;7.80;99.90;;;;;;7387360;19;20673;-84
2023/03/27 11:47:21;;;;;;;1.38;1.13;;;7.60;99.90;;;;;;7390872;19;20313;-80
2023/03/27 11:50:00;;;;;;;1.13;1.02;;;7.80;99.90;;;;;;7388962;19;20413;-82
2023/03/27 11:53:08;;;;;;;1.90;1.10;;;7.70;99.90;;;;;;7384752;19;20361;-80
2023/03/27 11:56:09;;;;;;;0.90;0.90;;;7.30;99.90;;;;;;7182221;19;2004574;-84
2023/03/27 11:58:55;;;;;;;0.90;0.90;;;7.20;99.90;;;;;;7387414;19;20383;-78
2023/03/27 12:01:27;;;;;;;1.10;1.00;;;7.00;99.90;;;;;;7281729;19;2004599;-78
2023/03/27 12:04:26;;;;;;;1.90;1.20;;;6.50;99.90;;;;;;7384499;19;20373;-85
2023/03/27 12:07:31;;;;;;;1.60;1.10;;;6.50;99.90;;;;;;7286333;19;2004215;-84
2023/03/27 12:10:10;;;;;;;0.98;0.98;;;6.80;99.90;;;;;;7286111;19;2004524;-80
2023/03/27 12:13:04;;;;;;;1.02;1.00;;;7.30;99.90;;;;;;7282306;19;2004605;-80
2023/03/27 12:15:56;;;;;;;1.20;1.10;;;7.60;99.90;;;;;;7388193;19;20396;-79
2023/03/27 12:18:41;;;;;;;1.40;1.30;;;7.80;99.90;;;;;;7285916;19;2004286;-82
2023/03/27 12:21:23;;;;;;;1.45;1.27;;;7.50;99.90;;;;;;7387590;19;20783;-81
2023/03/27 12:24:14;;;;;;;1.20;1.15;;;7.60;99.90;;;;;;7284541;19;2004464;-78
2023/03/27 12:27:22;;;;;;;2.97;1.00;;;7.70;99.90;;;;;;7285321;19;2004457;-79
2023/03/27 12:29:52;;;;;;;1.17;1.13;;;6.80;99.90;;;;;;7284462;19;2004272;-78
2023/03/27 12:32:39;;;;;;;1.13;1.03;;;6.90;99.90;;;;;;7382710;19;20680;-78
2023/03/27 12:35:18;;;;;;;2.35;1.13;;;6.60;99.90;;;;;;7385524;19;20292;-78
2023/03/27 12:37:54;;;;;;;1.30;1.20;;;6.50;99.90;;;;;;7283650;19;2004420;-83
2023/03/27 12:40:26;;;;;;;1.27;1.17;;;6.50;99.90;;;;;;7386541;19;20365;-77
2023/03/27 12:43:02;;;;;;;1.33;1.23;;;6.60;99.90;;;;;;7384263;19;20345;-84
2023/03/27 12:45:27;;;;;;;1.10;1.10;;;6.90;99.90;;;;;;7387831;19;20335;-87
2023/03/27 12:48:05;;;;;;;2.60;1.10;;;7.20;99.90;;;;;;7385888;19;20336;-79
2023/03/27 12:50:40;;;;;;;1.30;1.20;;;7.60;99.90;;;;;;7386107;19;20356;-81
2023/03/27 12:53:17;;;;;;;1.73;1.00;;;8.10;99.90;;;;;;7385937;19;20312;-83
2023/03/27 12:55:43;;;;;;;2.30;1.30;;;8.10;99.90;;;;;;7284084;19;2004225;-76
2023/03/27 12:58:32;;;;;;;1.00;1.00;;;7.80;99.90;;;;;;7387324;19;20313;-77
2023/03/27 13:01:06;;;;;;;1.35;1.10;;;7.90;99.90;;;;;;7388716;19;20320;-77
2023/03/27 13:03:57;;;;;;;1.10;1.00;;;8.30;99.90;;;;;;7284637;19;2004197;-79
2023/03/27 13:06:39;;;;;;;0.80;0.80;;;8.70;99.90;;;;;;7384366;19;20337;-78
2023/03/27 13:09:22;;;;;;;0.85;0.85;;;8.60;99.90;;;;;;7394580;19;20337;-84
2023/03/27 13:12:16;;;;;;;0.90;0.90;;;9.30;99.90;;;;;;7303424;19;2004277;-88
2023/03/27 13:15:01;;;;;;;0.90;0.90;;;8.70;98.60;;;;;;7397935;19;20312;-83
2023/03/27 13:17:40;;;;;;;1.02;0.98;;;9.20;99.20;;;;;;7299809;19;2004416;-83
2023/03/27 13:20:31;;;;;;;0.77;0.77;;;9.10;99.20;;;;;;7407413;19;20297;-90
2023/03/27 13:23:08;;;;;;;1.50;0.90;;;9.10;99.90;;;;;;7297052;19;2004547;-91
2023/03/27 13:26:07;;;;;;;1.15;1.00;;;8.50;99.40;;;;;;7406277;19;20316;-88
2023/03/27 13:28:41;;;;;;;1.10;0.90;;;9.00;99.90;;;;;;7300382;19;2004446;-89
2023/03/27 13:31:13;;;;;;;0.88;0.88;;;9.20;98.90;;;;;;7398870;19;20450;-82
2023/03/27 13:34:25;;;;;;;0.95;0.95;;;9.20;97.90;;;;;;7291545;19;2004281;-87
2023/03/27 13:36:54;;;;;;;1.40;0.90;;;9.10;97.60;;;;;;7296212;19;2004359;-89